sensor_id;sensor_type;location;lat;lon;timestamp;P1;durP1;ratioP1;P2;durP2;ratioP2
19205;SDS011;59358;52.134;5.596;2022-10-17T00:02:07;19.35;;;13.55;;
19205;SDS011;59358;52.134;5.596;2022-10-17T00:04:34;18.25;;;13.20;;
19205;SDS011;59358;52.134;5.596;2022-10-17T00:07:01;18.83;;;14.45;;
19205;SDS011;59358;52.134;5.596;2022-10-17T00:09:28;22.33;;;14.30;;
19205;SDS011;59358;52.134;5.596;2022-10-17T00:11:56;23.30;;;15.50;;
19205;SDS011;59358;52.134;5.596;2022-10-17T00:14:23;24.92;;;16.58;;
19205;SDS011;59358;52.134;5.596;2022-10-17T00:16:50;19.13;;;15.07;;
19205;SDS011;59358;52.134;5.596;2022-10-17T00:19:16;25.40;;;15.18;;
19205;SDS011;59358;52.134;5.596;2022-10-17T00:21:43;23.25;;;17.23;;
19205;SDS011;59358;52.134;5.596;2022-10-17T00:24:10;22.63;;;16.13;;
19205;SDS011;59358;52.134;5.596;2022-10-17T00:26:37;21.75;;;16.20;;
19205;SDS011;59358;52.134;5.596;2022-10-17T00:29:05;24.08;;;16.05;;
19205;SDS011;59358;52.134;5.596;2022-10-17T00:31:32;22.23;;;16.48;;
19205;SDS011;59358;52.134;5.596;2022-10-17T00:33:59;21.92;;;16.75;;
19205;SDS011;59358;52.134;5.596;2022-10-17T00:36:26;29.20;;;18.88;;
19205;SDS011;59358;52.134;5.596;2022-10-17T00:38:54;24.30;;;18.00;;
19205;SDS011;59358;52.134;5.596;2022-10-17T00:41:23;28.52;;;17.48;;
19205;SDS011;59358;52.134;5.596;2022-10-17T00:43:52;27.35;;;18.55;;
19205;SDS011;59358;52.134;5.596;2022-10-17T00:46:23;24.98;;;17.25;;
19205;SDS011;59358;52.134;5.596;2022-10-17T00:48:51;21.42;;;17.25;;
19205;SDS011;59358;52.134;5.596;2022-10-17T00:51:21;25.45;;;17.95;;
19205;SDS011;59358;52.134;5.596;2022-10-17T00:53:53;30.80;;;20.13;;
19205;SDS011;59358;52.134;5.596;2022-10-17T00:56:21;26.48;;;18.65;;
19205;SDS011;59358;52.134;5.596;2022-10-17T00:58:48;33.22;;;19.50;;
19205;SDS011;59358;52.134;5.596;2022-10-17T01:01:15;29.55;;;19.45;;
19205;SDS011;59358;52.134;5.596;2022-10-17T01:03:43;24.00;;;17.92;;
19205;SDS011;59358;52.134;5.596;2022-10-17T01:06:11;29.42;;;19.40;;
19205;SDS011;59358;52.134;5.596;2022-10-17T01:08:37;27.10;;;18.20;;
19205;SDS011;59358;52.134;5.596;2022-10-17T01:11:07;25.38;;;18.83;;
19205;SDS011;59358;52.134;5.596;2022-10-17T01:13:45;29.17;;;18.60;;
19205;SDS011;59358;52.134;5.596;2022-10-17T01:16:17;23.38;;;18.20;;
19205;SDS011;59358;52.134;5.596;2022-10-17T01:18:57;29.30;;;19.77;;
19205;SDS011;59358;52.134;5.596;2022-10-17T01:21:32;25.20;;;18.50;;
19205;SDS011;59358;52.134;5.596;2022-10-17T01:24:17;27.27;;;18.85;;
19205;SDS011;59358;52.134;5.596;2022-10-17T01:27:17;28.88;;;19.98;;
19205;SDS011;59358;52.134;5.596;2022-10-17T01:33:19;30.77;;;19.88;;
19205;SDS011;59358;52.134;5.596;2022-10-17T01:35:54;32.80;;;21.27;;
19205;SDS011;59358;52.134;5.596;2022-10-17T01:38:25;27.27;;;20.45;;
19205;SDS011;59358;52.134;5.596;2022-10-17T01:40:59;25.70;;;18.17;;
19205;SDS011;59358;52.134;5.596;2022-10-17T01:43:32;29.00;;;19.83;;
19205;SDS011;59358;52.134;5.596;2022-10-17T01:46:05;28.55;;;20.45;;
19205;SDS011;59358;52.134;5.596;2022-10-17T01:48:39;33.33;;;20.73;;
19205;SDS011;59358;52.134;5.596;2022-10-17T01:51:12;33.08;;;21.75;;
19205;SDS011;59358;52.134;5.596;2022-10-17T01:53:44;33.47;;;20.85;;
19205;SDS011;59358;52.134;5.596;2022-10-17T01:56:14;26.80;;;19.73;;
19205;SDS011;59358;52.134;5.596;2022-10-17T01:58:44;30.60;;;21.52;;
19205;SDS011;59358;52.134;5.596;2022-10-17T02:01:16;32.92;;;21.48;;
19205;SDS011;59358;52.134;5.596;2022-10-17T02:03:45;34.03;;;22.90;;
19205;SDS011;59358;52.134;5.596;2022-10-17T02:06:15;30.42;;;20.42;;
19205;SDS011;59358;52.134;5.596;2022-10-17T02:08:43;30.95;;;21.48;;
19205;SDS011;59358;52.134;5.596;2022-10-17T02:11:12;36.22;;;22.25;;
19205;SDS011;59358;52.134;5.596;2022-10-17T02:13:46;31.25;;;21.55;;
19205;SDS011;59358;52.134;5.596;2022-10-17T02:16:23;33.78;;;21.05;;
19205;SDS011;59358;52.134;5.596;2022-10-17T02:19:08;32.47;;;22.08;;
19205;SDS011;59358;52.134;5.596;2022-10-17T02:21:50;32.70;;;20.83;;
19205;SDS011;59358;52.134;5.596;2022-10-17T02:24:27;34.58;;;22.15;;
19205;SDS011;59358;52.134;5.596;2022-10-17T02:27:02;35.33;;;22.60;;
19205;SDS011;59358;52.134;5.596;2022-10-17T02:29:33;33.90;;;22.05;;
19205;SDS011;59358;52.134;5.596;2022-10-17T02:32:05;39.95;;;24.63;;
19205;SDS011;59358;52.134;5.596;2022-10-17T02:34:37;38.20;;;25.20;;
19205;SDS011;59358;52.134;5.596;2022-10-17T02:37:07;37.67;;;23.48;;
19205;SDS011;59358;52.134;5.596;2022-10-17T02:39:36;34.03;;;22.83;;
19205;SDS011;59358;52.134;5.596;2022-10-17T02:42:05;37.90;;;24.58;;
19205;SDS011;59358;52.134;5.596;2022-10-17T02:44:36;38.78;;;24.10;;
19205;SDS011;59358;52.134;5.596;2022-10-17T02:47:06;34.10;;;22.42;;
19205;SDS011;59358;52.134;5.596;2022-10-17T02:49:40;34.03;;;24.23;;
19205;SDS011;59358;52.134;5.596;2022-10-17T02:52:13;40.63;;;25.67;;
19205;SDS011;59358;52.134;5.596;2022-10-17T02:54:44;37.85;;;22.85;;
19205;SDS011;59358;52.134;5.596;2022-10-17T02:57:17;34.95;;;22.42;;
19205;SDS011;59358;52.134;5.596;2022-10-17T02:59:47;35.42;;;23.33;;
19205;SDS011;59358;52.134;5.596;2022-10-17T03:02:15;36.40;;;22.73;;
19205;SDS011;59358;52.134;5.596;2022-10-17T03:04:44;38.45;;;22.83;;
19205;SDS011;59358;52.134;5.596;2022-10-17T03:07:11;32.38;;;21.60;;
19205;SDS011;59358;52.134;5.596;2022-10-17T03:09:38;35.50;;;23.40;;
19205;SDS011;59358;52.134;5.596;2022-10-17T03:12:04;30.48;;;21.25;;
19205;SDS011;59358;52.134;5.596;2022-10-17T03:14:31;35.10;;;22.52;;
19205;SDS011;59358;52.134;5.596;2022-10-17T03:16:58;31.65;;;21.15;;
19205;SDS011;59358;52.134;5.596;2022-10-17T03:19:25;28.10;;;21.05;;
19205;SDS011;59358;52.134;5.596;2022-10-17T03:21:54;26.42;;;19.73;;
19205;SDS011;59358;52.134;5.596;2022-10-17T03:24:21;28.08;;;19.73;;
19205;SDS011;59358;52.134;5.596;2022-10-17T03:26:48;26.42;;;19.40;;
19205;SDS011;59358;52.134;5.596;2022-10-17T03:29:14;29.30;;;19.42;;
19205;SDS011;59358;52.134;5.596;2022-10-17T03:31:41;26.85;;;19.02;;
19205;SDS011;59358;52.134;5.596;2022-10-17T03:34:08;25.58;;;19.13;;
19205;SDS011;59358;52.134;5.596;2022-10-17T03:36:34;26.83;;;18.85;;
19205;SDS011;59358;52.134;5.596;2022-10-17T03:39:03;25.63;;;18.50;;
19205;SDS011;59358;52.134;5.596;2022-10-17T03:41:30;23.20;;;17.73;;
19205;SDS011;59358;52.134;5.596;2022-10-17T03:43:56;20.65;;;16.88;;
19205;SDS011;59358;52.134;5.596;2022-10-17T03:46:23;26.95;;;17.75;;
19205;SDS011;59358;52.134;5.596;2022-10-17T03:48:50;21.20;;;17.42;;
19205;SDS011;59358;52.134;5.596;2022-10-17T03:51:17;23.90;;;17.33;;
19205;SDS011;59358;52.134;5.596;2022-10-17T03:53:44;23.25;;;16.27;;
19205;SDS011;59358;52.134;5.596;2022-10-17T03:56:12;22.25;;;17.52;;
19205;SDS011;59358;52.134;5.596;2022-10-17T03:58:41;19.50;;;16.63;;
19205;SDS011;59358;52.134;5.596;2022-10-17T04:01:09;22.75;;;16.77;;
19205;SDS011;59358;52.134;5.596;2022-10-17T04:03:37;23.45;;;17.92;;
19205;SDS011;59358;52.134;5.596;2022-10-17T04:06:04;21.20;;;16.40;;
19205;SDS011;59358;52.134;5.596;2022-10-17T04:08:32;23.35;;;17.42;;
19205;SDS011;59358;52.134;5.596;2022-10-17T04:10:59;23.67;;;16.45;;
19205;SDS011;59358;52.134;5.596;2022-10-17T04:13:28;20.77;;;15.50;;
19205;SDS011;59358;52.134;5.596;2022-10-17T04:15:56;22.38;;;16.63;;
19205;SDS011;59358;52.134;5.596;2022-10-17T04:18:24;19.98;;;16.25;;
19205;SDS011;59358;52.134;5.596;2022-10-17T04:20:52;23.50;;;17.52;;
19205;SDS011;59358;52.134;5.596;2022-10-17T04:23:19;25.10;;;17.25;;
19205;SDS011;59358;52.134;5.596;2022-10-17T04:25:46;19.90;;;16.77;;
19205;SDS011;59358;52.134;5.596;2022-10-17T04:28:13;23.23;;;15.63;;
19205;SDS011;59358;52.134;5.596;2022-10-17T04:30:42;20.63;;;16.80;;
19205;SDS011;59358;52.134;5.596;2022-10-17T04:33:08;21.95;;;16.27;;
19205;SDS011;59358;52.134;5.596;2022-10-17T04:35:35;20.17;;;15.63;;
19205;SDS011;59358;52.134;5.596;2022-10-17T04:38:02;20.27;;;14.82;;
19205;SDS011;59358;52.134;5.596;2022-10-17T04:40:30;23.70;;;16.23;;
19205;SDS011;59358;52.134;5.596;2022-10-17T04:42:56;23.95;;;17.42;;
19205;SDS011;59358;52.134;5.596;2022-10-17T04:45:23;20.13;;;16.25;;
19205;SDS011;59358;52.134;5.596;2022-10-17T04:47:51;19.42;;;15.65;;
19205;SDS011;59358;52.134;5.596;2022-10-17T04:50:18;23.48;;;16.67;;
19205;SDS011;59358;52.134;5.596;2022-10-17T04:52:45;23.70;;;16.20;;
19205;SDS011;59358;52.134;5.596;2022-10-17T04:55:12;20.67;;;16.00;;
19205;SDS011;59358;52.134;5.596;2022-10-17T04:57:38;17.58;;;15.48;;
19205;SDS011;59358;52.134;5.596;2022-10-17T05:00:05;22.40;;;14.65;;
19205;SDS011;59358;52.134;5.596;2022-10-17T05:02:34;19.38;;;15.18;;
19205;SDS011;59358;52.134;5.596;2022-10-17T05:05:02;18.77;;;15.40;;
19205;SDS011;59358;52.134;5.596;2022-10-17T05:07:29;20.05;;;14.88;;
19205;SDS011;59358;52.134;5.596;2022-10-17T05:09:56;18.73;;;15.57;;
19205;SDS011;59358;52.134;5.596;2022-10-17T05:12:23;18.02;;;14.57;;
19205;SDS011;59358;52.134;5.596;2022-10-17T05:14:50;21.60;;;15.05;;
19205;SDS011;59358;52.134;5.596;2022-10-17T05:17:17;18.23;;;15.07;;
19205;SDS011;59358;52.134;5.596;2022-10-17T05:19:44;22.52;;;14.90;;
19205;SDS011;59358;52.134;5.596;2022-10-17T05:22:12;23.50;;;16.05;;
19205;SDS011;59358;52.134;5.596;2022-10-17T05:24:39;19.10;;;14.55;;
19205;SDS011;59358;52.134;5.596;2022-10-17T05:27:06;17.17;;;14.88;;
19205;SDS011;59358;52.134;5.596;2022-10-17T05:29:33;20.50;;;15.40;;
19205;SDS011;59358;52.134;5.596;2022-10-17T05:32:00;19.60;;;15.02;;
19205;SDS011;59358;52.134;5.596;2022-10-17T05:34:27;22.00;;;15.82;;
19205;SDS011;59358;52.134;5.596;2022-10-17T05:36:54;17.02;;;15.05;;
19205;SDS011;59358;52.134;5.596;2022-10-17T05:39:22;18.23;;;15.07;;
19205;SDS011;59358;52.134;5.596;2022-10-17T05:41:50;18.02;;;15.27;;
19205;SDS011;59358;52.134;5.596;2022-10-17T05:44:16;21.95;;;15.55;;
19205;SDS011;59358;52.134;5.596;2022-10-17T05:46:43;23.38;;;14.93;;
19205;SDS011;59358;52.134;5.596;2022-10-17T05:49:10;19.75;;;15.70;;
19205;SDS011;59358;52.134;5.596;2022-10-17T05:51:37;25.38;;;14.27;;
19205;SDS011;59358;52.134;5.596;2022-10-17T05:54:04;22.30;;;15.57;;
19205;SDS011;59358;52.134;5.596;2022-10-17T05:56:32;16.15;;;13.93;;
19205;SDS011;59358;52.134;5.596;2022-10-17T05:59:00;18.02;;;14.98;;
19205;SDS011;59358;52.134;5.596;2022-10-17T06:01:27;20.80;;;14.88;;
19205;SDS011;59358;52.134;5.596;2022-10-17T06:03:54;18.00;;;15.55;;
19205;SDS011;59358;52.134;5.596;2022-10-17T06:06:21;20.58;;;15.38;;
19205;SDS011;59358;52.134;5.596;2022-10-17T06:08:48;21.50;;;15.65;;
19205;SDS011;59358;52.134;5.596;2022-10-17T06:11:15;21.13;;;16.00;;
19205;SDS011;59358;52.134;5.596;2022-10-17T06:13:43;18.75;;;14.80;;
19205;SDS011;59358;52.134;5.596;2022-10-17T06:16:10;21.08;;;16.65;;
19205;SDS011;59358;52.134;5.596;2022-10-17T06:18:37;16.75;;;14.55;;
19205;SDS011;59358;52.134;5.596;2022-10-17T06:21:04;20.38;;;15.60;;
19205;SDS011;59358;52.134;5.596;2022-10-17T06:23:33;20.98;;;15.82;;
19205;SDS011;59358;52.134;5.596;2022-10-17T06:26:01;21.23;;;15.63;;
19205;SDS011;59358;52.134;5.596;2022-10-17T06:28:29;21.15;;;15.13;;
19205;SDS011;59358;52.134;5.596;2022-10-17T06:30:58;22.08;;;15.48;;
19205;SDS011;59358;52.134;5.596;2022-10-17T06:33:25;20.50;;;15.73;;
19205;SDS011;59358;52.134;5.596;2022-10-17T06:35:52;24.30;;;17.33;;
19205;SDS011;59358;52.134;5.596;2022-10-17T06:38:20;23.00;;;16.27;;
19205;SDS011;59358;52.134;5.596;2022-10-17T06:40:49;22.80;;;15.95;;
19205;SDS011;59358;52.134;5.596;2022-10-17T06:43:20;25.05;;;15.80;;
19205;SDS011;59358;52.134;5.596;2022-10-17T06:45:46;17.58;;;14.57;;
19205;SDS011;59358;52.134;5.596;2022-10-17T06:48:15;20.15;;;15.68;;
19205;SDS011;59358;52.134;5.596;2022-10-17T06:50:49;20.55;;;14.55;;
19205;SDS011;59358;52.134;5.596;2022-10-17T06:53:16;19.95;;;15.07;;
19205;SDS011;59358;52.134;5.596;2022-10-17T06:55:44;21.48;;;14.98;;
19205;SDS011;59358;52.134;5.596;2022-10-17T06:58:22;18.08;;;14.82;;
19205;SDS011;59358;52.134;5.596;2022-10-17T07:00:49;23.30;;;14.50;;
19205;SDS011;59358;52.134;5.596;2022-10-17T07:03:18;20.17;;;13.98;;
19205;SDS011;59358;52.134;5.596;2022-10-17T07:05:49;17.58;;;14.18;;
19205;SDS011;59358;52.134;5.596;2022-10-17T07:08:17;19.15;;;13.13;;
19205;SDS011;59358;52.134;5.596;2022-10-17T07:10:44;18.42;;;14.30;;
19205;SDS011;59358;52.134;5.596;2022-10-17T07:13:11;15.73;;;13.60;;
19205;SDS011;59358;52.134;5.596;2022-10-17T07:15:38;18.15;;;13.50;;
19205;SDS011;59358;52.134;5.596;2022-10-17T07:18:11;18.02;;;13.38;;
19205;SDS011;59358;52.134;5.596;2022-10-17T07:20:41;20.40;;;12.77;;
19205;SDS011;59358;52.134;5.596;2022-10-17T07:23:08;18.70;;;14.00;;
19205;SDS011;59358;52.134;5.596;2022-10-17T07:25:35;20.27;;;13.48;;
19205;SDS011;59358;52.134;5.596;2022-10-17T07:28:02;16.25;;;13.50;;
19205;SDS011;59358;52.134;5.596;2022-10-17T07:30:32;21.13;;;13.80;;
19205;SDS011;59358;52.134;5.596;2022-10-17T07:32:59;18.00;;;13.38;;
19205;SDS011;59358;52.134;5.596;2022-10-17T07:35:26;21.35;;;13.30;;
19205;SDS011;59358;52.134;5.596;2022-10-17T07:37:54;20.55;;;13.77;;
19205;SDS011;59358;52.134;5.596;2022-10-17T07:40:21;17.05;;;12.27;;
19205;SDS011;59358;52.134;5.596;2022-10-17T07:42:48;17.30;;;12.82;;
19205;SDS011;59358;52.134;5.596;2022-10-17T07:45:16;16.60;;;12.95;;
19205;SDS011;59358;52.134;5.596;2022-10-17T07:47:43;15.65;;;12.85;;
19205;SDS011;59358;52.134;5.596;2022-10-17T07:50:10;18.27;;;13.02;;
19205;SDS011;59358;52.134;5.596;2022-10-17T07:52:37;20.80;;;13.10;;
19205;SDS011;59358;52.134;5.596;2022-10-17T07:55:08;14.30;;;12.25;;
19205;SDS011;59358;52.134;5.596;2022-10-17T07:57:35;17.20;;;12.45;;
19205;SDS011;59358;52.134;5.596;2022-10-17T08:00:04;18.63;;;12.80;;
19205;SDS011;59358;52.134;5.596;2022-10-17T08:02:32;16.90;;;13.25;;
19205;SDS011;59358;52.134;5.596;2022-10-17T08:04:59;19.98;;;13.32;;
19205;SDS011;59358;52.134;5.596;2022-10-17T08:07:26;19.95;;;12.63;;
19205;SDS011;59358;52.134;5.596;2022-10-17T08:09:53;13.32;;;11.98;;
19205;SDS011;59358;52.134;5.596;2022-10-17T08:12:21;19.08;;;13.27;;
19205;SDS011;59358;52.134;5.596;2022-10-17T08:14:49;18.50;;;13.23;;
19205;SDS011;59358;52.134;5.596;2022-10-17T08:17:17;19.40;;;13.95;;
19205;SDS011;59358;52.134;5.596;2022-10-17T08:19:43;20.60;;;13.57;;
19205;SDS011;59358;52.134;5.596;2022-10-17T08:22:10;19.90;;;14.07;;
19205;SDS011;59358;52.134;5.596;2022-10-17T08:24:37;18.65;;;13.63;;
19205;SDS011;59358;52.134;5.596;2022-10-17T08:27:04;21.10;;;14.60;;
19205;SDS011;59358;52.134;5.596;2022-10-17T08:29:36;21.95;;;14.57;;
19205;SDS011;59358;52.134;5.596;2022-10-17T08:32:03;19.10;;;14.13;;
19205;SDS011;59358;52.134;5.596;2022-10-17T08:37:36;24.05;;;16.20;;
19205;SDS011;59358;52.134;5.596;2022-10-17T08:40:03;17.98;;;14.75;;
19205;SDS011;59358;52.134;5.596;2022-10-17T08:42:41;21.42;;;16.42;;
19205;SDS011;59358;52.134;5.596;2022-10-17T08:45:20;21.92;;;17.00;;
19205;SDS011;59358;52.134;5.596;2022-10-17T08:47:54;24.92;;;17.90;;
19205;SDS011;59358;52.134;5.596;2022-10-17T08:50:27;22.85;;;18.73;;
19205;SDS011;59358;52.134;5.596;2022-10-17T08:52:59;26.70;;;19.90;;
19205;SDS011;59358;52.134;5.596;2022-10-17T08:55:32;23.90;;;20.08;;
19205;SDS011;59358;52.134;5.596;2022-10-17T08:58:01;22.95;;;17.88;;
19205;SDS011;59358;52.134;5.596;2022-10-17T09:00:30;23.40;;;18.92;;
19205;SDS011;59358;52.134;5.596;2022-10-17T09:03:11;23.40;;;17.33;;
19205;SDS011;59358;52.134;5.596;2022-10-17T09:05:48;28.80;;;20.77;;
19205;SDS011;59358;52.134;5.596;2022-10-17T09:08:21;31.38;;;21.80;;
19205;SDS011;59358;52.134;5.596;2022-10-17T09:10:56;24.10;;;17.85;;
19205;SDS011;59358;52.134;5.596;2022-10-17T09:13:31;27.70;;;20.67;;
19205;SDS011;59358;52.134;5.596;2022-10-17T09:19:07;26.52;;;21.02;;
19205;SDS011;59358;52.134;5.596;2022-10-17T09:21:40;29.50;;;20.35;;
19205;SDS011;59358;52.134;5.596;2022-10-17T09:24:12;27.20;;;21.80;;
19205;SDS011;59358;52.134;5.596;2022-10-17T09:26:43;30.80;;;22.70;;
19205;SDS011;59358;52.134;5.596;2022-10-17T09:29:14;29.20;;;22.58;;
19205;SDS011;59358;52.134;5.596;2022-10-17T09:31:46;26.25;;;20.27;;
19205;SDS011;59358;52.134;5.596;2022-10-17T09:34:18;20.95;;;17.73;;
19205;SDS011;59358;52.134;5.596;2022-10-17T09:36:45;26.33;;;18.05;;
19205;SDS011;59358;52.134;5.596;2022-10-17T09:39:13;27.52;;;20.33;;
19205;SDS011;59358;52.134;5.596;2022-10-17T09:41:46;24.23;;;20.00;;
19205;SDS011;59358;52.134;5.596;2022-10-17T09:44:19;24.73;;;19.77;;
19205;SDS011;59358;52.134;5.596;2022-10-17T09:46:53;28.10;;;19.80;;
19205;SDS011;59358;52.134;5.596;2022-10-17T09:49:47;25.48;;;19.33;;
19205;SDS011;59358;52.134;5.596;2022-10-17T09:52:16;28.38;;;20.08;;
19205;SDS011;59358;52.134;5.596;2022-10-17T09:54:46;24.98;;;19.35;;
19205;SDS011;59358;52.134;5.596;2022-10-17T09:57:16;25.67;;;18.80;;
19205;SDS011;59358;52.134;5.596;2022-10-17T09:59:44;27.15;;;19.65;;
19205;SDS011;59358;52.134;5.596;2022-10-17T10:02:17;30.35;;;20.70;;
19205;SDS011;59358;52.134;5.596;2022-10-17T10:04:52;24.02;;;17.73;;
19205;SDS011;59358;52.134;5.596;2022-10-17T10:07:20;25.40;;;19.17;;
19205;SDS011;59358;52.134;5.596;2022-10-17T10:09:47;23.30;;;18.20;;
19205;SDS011;59358;52.134;5.596;2022-10-17T10:12:16;24.80;;;18.25;;
19205;SDS011;59358;52.134;5.596;2022-10-17T10:14:45;25.58;;;18.25;;
19205;SDS011;59358;52.134;5.596;2022-10-17T10:20:23;21.98;;;18.05;;
19205;SDS011;59358;52.134;5.596;2022-10-17T10:23:06;19.50;;;16.60;;
19205;SDS011;59358;52.134;5.596;2022-10-17T10:25:38;21.33;;;18.20;;
19205;SDS011;59358;52.134;5.596;2022-10-17T10:28:16;23.02;;;18.70;;
19205;SDS011;59358;52.134;5.596;2022-10-17T10:30:46;23.60;;;17.17;;
19205;SDS011;59358;52.134;5.596;2022-10-17T10:33:17;19.50;;;16.90;;
19205;SDS011;59358;52.134;5.596;2022-10-17T10:35:50;20.60;;;16.65;;
19205;SDS011;59358;52.134;5.596;2022-10-17T10:38:21;22.33;;;16.65;;
19205;SDS011;59358;52.134;5.596;2022-10-17T10:40:48;19.23;;;16.50;;
19205;SDS011;59358;52.134;5.596;2022-10-17T10:43:22;18.42;;;16.13;;
19205;SDS011;59358;52.134;5.596;2022-10-17T10:45:52;24.60;;;17.25;;
19205;SDS011;59358;52.134;5.596;2022-10-17T10:48:22;25.15;;;16.70;;
19205;SDS011;59358;52.134;5.596;2022-10-17T10:50:50;19.92;;;16.48;;
19205;SDS011;59358;52.134;5.596;2022-10-17T10:53:27;19.92;;;15.20;;
19205;SDS011;59358;52.134;5.596;2022-10-17T10:55:58;16.02;;;14.15;;
19205;SDS011;59358;52.134;5.596;2022-10-17T10:58:31;17.10;;;13.85;;
19205;SDS011;59358;52.134;5.596;2022-10-17T11:01:05;19.42;;;14.40;;
19205;SDS011;59358;52.134;5.596;2022-10-17T11:03:41;15.98;;;14.32;;
19205;SDS011;59358;52.134;5.596;2022-10-17T11:06:21;16.67;;;13.85;;
19205;SDS011;59358;52.134;5.596;2022-10-17T11:12:05;16.75;;;13.02;;
19205;SDS011;59358;52.134;5.596;2022-10-17T11:14:46;16.30;;;13.50;;
19205;SDS011;59358;52.134;5.596;2022-10-17T11:17:20;15.52;;;13.05;;
19205;SDS011;59358;52.134;5.596;2022-10-17T11:19:58;15.35;;;12.90;;
19205;SDS011;59358;52.134;5.596;2022-10-17T11:22:33;17.13;;;13.45;;
19205;SDS011;59358;52.134;5.596;2022-10-17T11:25:04;16.65;;;12.80;;
19205;SDS011;59358;52.134;5.596;2022-10-17T11:27:38;17.20;;;13.45;;
19205;SDS011;59358;52.134;5.596;2022-10-17T11:30:05;16.33;;;11.63;;
19205;SDS011;59358;52.134;5.596;2022-10-17T11:32:38;12.60;;;10.70;;
19205;SDS011;59358;52.134;5.596;2022-10-17T11:35:14;12.40;;;10.30;;
19205;SDS011;59358;52.134;5.596;2022-10-17T11:37:45;14.48;;;10.85;;
19205;SDS011;59358;52.134;5.596;2022-10-17T11:40:21;11.93;;;9.75;;
19205;SDS011;59358;52.134;5.596;2022-10-17T11:42:56;13.73;;;10.50;;
19205;SDS011;59358;52.134;5.596;2022-10-17T11:45:26;13.27;;;11.45;;
19205;SDS011;59358;52.134;5.596;2022-10-17T11:48:00;13.88;;;10.60;;
19205;SDS011;59358;52.134;5.596;2022-10-17T11:50:31;13.98;;;9.93;;
19205;SDS011;59358;52.134;5.596;2022-10-17T11:53:02;14.48;;;11.23;;
19205;SDS011;59358;52.134;5.596;2022-10-17T11:55:34;14.57;;;11.35;;
19205;SDS011;59358;52.134;5.596;2022-10-17T11:58:07;14.98;;;11.98;;
19205;SDS011;59358;52.134;5.596;2022-10-17T12:00:50;13.57;;;11.05;;
19205;SDS011;59358;52.134;5.596;2022-10-17T12:03:28;13.25;;;11.48;;
19205;SDS011;59358;52.134;5.596;2022-10-17T12:06:10;15.93;;;11.18;;
19205;SDS011;59358;52.134;5.596;2022-10-17T12:08:43;12.55;;;11.25;;
19205;SDS011;59358;52.134;5.596;2022-10-17T12:11:17;11.80;;;9.90;;
19205;SDS011;59358;52.134;5.596;2022-10-17T12:13:53;18.85;;;10.98;;
19205;SDS011;59358;52.134;5.596;2022-10-17T12:19:20;11.40;;;9.57;;
19205;SDS011;59358;52.134;5.596;2022-10-17T12:21:54;10.95;;;9.77;;
19205;SDS011;59358;52.134;5.596;2022-10-17T12:27:22;11.32;;;9.95;;
19205;SDS011;59358;52.134;5.596;2022-10-17T12:30:14;11.35;;;9.25;;
19205;SDS011;59358;52.134;5.596;2022-10-17T12:33:01;10.02;;;9.02;;
19205;SDS011;59358;52.134;5.596;2022-10-17T12:35:31;12.00;;;8.85;;
19205;SDS011;59358;52.134;5.596;2022-10-17T12:38:02;10.52;;;9.43;;
19205;SDS011;59358;52.134;5.596;2022-10-17T12:40:49;11.82;;;10.05;;
19205;SDS011;59358;52.134;5.596;2022-10-17T12:43:46;16.17;;;10.65;;
19205;SDS011;59358;52.134;5.596;2022-10-17T12:49:19;13.35;;;10.40;;
19205;SDS011;59358;52.134;5.596;2022-10-17T12:52:04;12.55;;;11.10;;
19205;SDS011;59358;52.134;5.596;2022-10-17T12:54:42;13.93;;;12.05;;
19205;SDS011;59358;52.134;5.596;2022-10-17T12:57:14;15.70;;;11.45;;
19205;SDS011;59358;52.134;5.596;2022-10-17T12:59:45;14.90;;;10.75;;
19205;SDS011;59358;52.134;5.596;2022-10-17T13:02:15;15.27;;;11.98;;
19205;SDS011;59358;52.134;5.596;2022-10-17T13:04:45;13.93;;;11.52;;
19205;SDS011;59358;52.134;5.596;2022-10-17T13:07:15;13.23;;;11.10;;
19205;SDS011;59358;52.134;5.596;2022-10-17T13:09:47;16.08;;;12.45;;
19205;SDS011;59358;52.134;5.596;2022-10-17T13:12:17;16.23;;;12.55;;
19205;SDS011;59358;52.134;5.596;2022-10-17T13:14:49;14.45;;;12.80;;
19205;SDS011;59358;52.134;5.596;2022-10-17T13:17:21;14.63;;;12.32;;
19205;SDS011;59358;52.134;5.596;2022-10-17T13:19:50;13.50;;;12.10;;
19205;SDS011;59358;52.134;5.596;2022-10-17T13:22:18;15.32;;;12.75;;
19205;SDS011;59358;52.134;5.596;2022-10-17T13:24:48;15.27;;;12.13;;
19205;SDS011;59358;52.134;5.596;2022-10-17T13:27:29;14.77;;;12.10;;
19205;SDS011;59358;52.134;5.596;2022-10-17T13:30:21;15.57;;;11.70;;
19205;SDS011;59358;52.134;5.596;2022-10-17T13:32:50;16.02;;;11.95;;
19205;SDS011;59358;52.134;5.596;2022-10-17T13:35:21;15.43;;;12.13;;
19205;SDS011;59358;52.134;5.596;2022-10-17T13:37:50;12.75;;;11.43;;
19205;SDS011;59358;52.134;5.596;2022-10-17T13:40:21;12.48;;;11.25;;
19205;SDS011;59358;52.134;5.596;2022-10-17T13:42:49;14.15;;;11.68;;
19205;SDS011;59358;52.134;5.596;2022-10-17T13:45:19;12.98;;;10.10;;
19205;SDS011;59358;52.134;5.596;2022-10-17T13:47:51;13.98;;;10.93;;
19205;SDS011;59358;52.134;5.596;2022-10-17T13:50:28;14.82;;;11.27;;
19205;SDS011;59358;52.134;5.596;2022-10-17T13:53:13;12.57;;;11.35;;
19205;SDS011;59358;52.134;5.596;2022-10-17T13:55:51;12.95;;;11.35;;
19205;SDS011;59358;52.134;5.596;2022-10-17T13:58:20;13.73;;;11.63;;
19205;SDS011;59358;52.134;5.596;2022-10-17T14:00:47;11.98;;;10.48;;
19205;SDS011;59358;52.134;5.596;2022-10-17T14:03:16;14.60;;;10.43;;
19205;SDS011;59358;52.134;5.596;2022-10-17T14:06:00;17.88;;;12.15;;
19205;SDS011;59358;52.134;5.596;2022-10-17T14:08:35;18.02;;;11.77;;
19205;SDS011;59358;52.134;5.596;2022-10-17T14:11:12;14.73;;;11.65;;
19205;SDS011;59358;52.134;5.596;2022-10-17T14:13:46;13.32;;;11.07;;
19205;SDS011;59358;52.134;5.596;2022-10-17T14:16:15;11.40;;;10.30;;
19205;SDS011;59358;52.134;5.596;2022-10-17T14:18:44;12.77;;;10.20;;
19205;SDS011;59358;52.134;5.596;2022-10-17T14:21:16;11.48;;;10.23;;
19205;SDS011;59358;52.134;5.596;2022-10-17T14:23:45;13.18;;;9.73;;
19205;SDS011;59358;52.134;5.596;2022-10-17T14:26:14;11.20;;;9.48;;
19205;SDS011;59358;52.134;5.596;2022-10-17T14:28:44;11.88;;;9.82;;
19205;SDS011;59358;52.134;5.596;2022-10-17T14:31:18;12.73;;;10.07;;
19205;SDS011;59358;52.134;5.596;2022-10-17T14:33:50;11.50;;;9.93;;
19205;SDS011;59358;52.134;5.596;2022-10-17T14:36:19;14.30;;;9.68;;
19205;SDS011;59358;52.134;5.596;2022-10-17T14:38:54;11.20;;;9.10;;
19205;SDS011;59358;52.134;5.596;2022-10-17T14:41:23;11.70;;;9.40;;
19205;SDS011;59358;52.134;5.596;2022-10-17T14:43:53;12.38;;;9.85;;
19205;SDS011;59358;52.134;5.596;2022-10-17T14:46:22;12.88;;;8.70;;
19205;SDS011;59358;52.134;5.596;2022-10-17T14:48:56;10.82;;;9.27;;
19205;SDS011;59358;52.134;5.596;2022-10-17T14:51:28;11.00;;;9.10;;
19205;SDS011;59358;52.134;5.596;2022-10-17T14:53:59;10.20;;;9.05;;
19205;SDS011;59358;52.134;5.596;2022-10-17T14:56:37;10.70;;;8.68;;
19205;SDS011;59358;52.134;5.596;2022-10-17T14:59:05;9.50;;;8.23;;
19205;SDS011;59358;52.134;5.596;2022-10-17T15:01:34;12.52;;;8.82;;
19205;SDS011;59358;52.134;5.596;2022-10-17T15:04:00;11.90;;;9.00;;
19205;SDS011;59358;52.134;5.596;2022-10-17T15:06:28;11.40;;;9.23;;
19205;SDS011;59358;52.134;5.596;2022-10-17T15:08:57;11.55;;;8.88;;